sensor_id;sensor_type;location;lat;lon;timestamp;P1;durP1;ratioP1;P2;durP2;ratioP2
45522;SDS011;31254;51.680;5.394;2022-07-06T00:01:39;4.70;;;1.35;;
45522;SDS011;31254;51.680;5.394;2022-07-06T00:04:05;2.47;;;1.33;;
45522;SDS011;31254;51.680;5.394;2022-07-06T00:06:33;3.38;;;1.38;;
45522;SDS011;31254;51.680;5.394;2022-07-06T00:09:00;6.57;;;1.50;;
45522;SDS011;31254;51.680;5.394;2022-07-06T00:11:27;3.78;;;1.55;;
45522;SDS011;31254;51.680;5.394;2022-07-06T00:13:54;2.55;;;1.42;;
45522;SDS011;31254;51.680;5.394;2022-07-06T00:16:22;2.83;;;1.42;;
45522;SDS011;31254;51.680;5.394;2022-07-06T00:18:50;4.88;;;1.45;;
45522;SDS011;31254;51.680;5.394;2022-07-06T00:21:17;6.00;;;1.42;;
45522;SDS011;31254;51.680;5.394;2022-07-06T00:23:43;3.00;;;1.30;;
45522;SDS011;31254;51.680;5.394;2022-07-06T00:26:10;6.50;;;1.73;;
45522;SDS011;31254;51.680;5.394;2022-07-06T00:28:37;4.78;;;1.30;;
45522;SDS011;31254;51.680;5.394;2022-07-06T00:31:04;2.28;;;1.45;;
45522;SDS011;31254;51.680;5.394;2022-07-06T00:33:32;3.83;;;1.50;;
45522;SDS011;31254;51.680;5.394;2022-07-06T00:35:59;6.57;;;1.80;;
45522;SDS011;31254;51.680;5.394;2022-07-06T00:38:25;4.47;;;1.63;;
45522;SDS011;31254;51.680;5.394;2022-07-06T00:40:52;5.05;;;1.63;;
45522;SDS011;31254;51.680;5.394;2022-07-06T00:43:19;3.83;;;1.52;;
45522;SDS011;31254;51.680;5.394;2022-07-06T00:45:46;6.50;;;2.00;;
45522;SDS011;31254;51.680;5.394;2022-07-06T00:48:13;3.95;;;1.70;;
45522;SDS011;31254;51.680;5.394;2022-07-06T00:50:39;6.70;;;1.65;;
45522;SDS011;31254;51.680;5.394;2022-07-06T00:53:06;6.00;;;1.52;;
45522;SDS011;31254;51.680;5.394;2022-07-06T00:55:35;4.10;;;1.60;;
45522;SDS011;31254;51.680;5.394;2022-07-06T00:58:07;5.75;;;1.98;;
45522;SDS011;31254;51.680;5.394;2022-07-06T01:00:35;6.22;;;1.65;;
45522;SDS011;31254;51.680;5.394;2022-07-06T01:03:02;4.95;;;1.70;;
45522;SDS011;31254;51.680;5.394;2022-07-06T01:05:29;7.22;;;1.95;;
45522;SDS011;31254;51.680;5.394;2022-07-06T01:07:56;3.70;;;2.22;;
45522;SDS011;31254;51.680;5.394;2022-07-06T01:10:23;5.43;;;1.83;;
45522;SDS011;31254;51.680;5.394;2022-07-06T01:12:51;6.25;;;2.00;;
45522;SDS011;31254;51.680;5.394;2022-07-06T01:15:18;4.10;;;1.65;;
45522;SDS011;31254;51.680;5.394;2022-07-06T01:17:48;3.95;;;1.67;;
45522;SDS011;31254;51.680;5.394;2022-07-06T01:20:16;3.50;;;1.75;;
45522;SDS011;31254;51.680;5.394;2022-07-06T01:22:47;5.47;;;2.03;;
45522;SDS011;31254;51.680;5.394;2022-07-06T01:25:15;2.95;;;1.52;;
45522;SDS011;31254;51.680;5.394;2022-07-06T01:27:44;2.45;;;1.45;;
45522;SDS011;31254;51.680;5.394;2022-07-06T01:30:13;4.07;;;1.92;;
45522;SDS011;31254;51.680;5.394;2022-07-06T01:32:41;6.50;;;1.67;;
45522;SDS011;31254;51.680;5.394;2022-07-06T01:35:09;4.03;;;1.70;;
45522;SDS011;31254;51.680;5.394;2022-07-06T01:37:37;2.80;;;1.60;;
45522;SDS011;31254;51.680;5.394;2022-07-06T01:40:08;4.22;;;1.40;;
45522;SDS011;31254;51.680;5.394;2022-07-06T01:42:36;5.38;;;1.77;;
45522;SDS011;31254;51.680;5.394;2022-07-06T01:45:03;4.20;;;1.83;;
45522;SDS011;31254;51.680;5.394;2022-07-06T01:47:31;4.60;;;1.70;;
45522;SDS011;31254;51.680;5.394;2022-07-06T01:49:59;5.88;;;2.00;;
45522;SDS011;31254;51.680;5.394;2022-07-06T01:52:27;4.15;;;2.05;;
45522;SDS011;31254;51.680;5.394;2022-07-06T01:54:55;3.63;;;1.77;;
45522;SDS011;31254;51.680;5.394;2022-07-06T01:57:22;3.95;;;1.73;;
45522;SDS011;31254;51.680;5.394;2022-07-06T01:59:49;4.55;;;1.67;;
45522;SDS011;31254;51.680;5.394;2022-07-06T02:02:16;7.15;;;2.08;;
45522;SDS011;31254;51.680;5.394;2022-07-06T02:04:43;5.90;;;1.75;;
45522;SDS011;31254;51.680;5.394;2022-07-06T02:07:10;3.45;;;1.67;;
45522;SDS011;31254;51.680;5.394;2022-07-06T02:09:37;4.40;;;1.90;;
45522;SDS011;31254;51.680;5.394;2022-07-06T02:12:03;2.95;;;1.65;;
45522;SDS011;31254;51.680;5.394;2022-07-06T02:14:30;4.43;;;1.50;;
45522;SDS011;31254;51.680;5.394;2022-07-06T02:16:57;3.80;;;1.50;;
45522;SDS011;31254;51.680;5.394;2022-07-06T02:19:24;3.95;;;1.52;;
45522;SDS011;31254;51.680;5.394;2022-07-06T02:21:51;5.03;;;1.77;;
45522;SDS011;31254;51.680;5.394;2022-07-06T02:24:17;4.00;;;1.60;;
45522;SDS011;31254;51.680;5.394;2022-07-06T02:26:44;4.47;;;1.52;;
45522;SDS011;31254;51.680;5.394;2022-07-06T02:29:10;3.72;;;1.77;;
45522;SDS011;31254;51.680;5.394;2022-07-06T02:31:37;4.95;;;1.80;;
45522;SDS011;31254;51.680;5.394;2022-07-06T02:34:06;6.22;;;1.88;;
45522;SDS011;31254;51.680;5.394;2022-07-06T02:36:35;4.32;;;1.80;;
45522;SDS011;31254;51.680;5.394;2022-07-06T02:39:02;4.47;;;2.00;;
45522;SDS011;31254;51.680;5.394;2022-07-06T02:41:28;8.57;;;2.30;;
45522;SDS011;31254;51.680;5.394;2022-07-06T02:43:55;4.28;;;1.90;;
45522;SDS011;31254;51.680;5.394;2022-07-06T02:46:21;6.70;;;2.20;;
45522;SDS011;31254;51.680;5.394;2022-07-06T02:48:48;4.38;;;1.75;;
45522;SDS011;31254;51.680;5.394;2022-07-06T02:51:15;5.43;;;1.63;;
45522;SDS011;31254;51.680;5.394;2022-07-06T02:53:43;4.78;;;1.90;;
45522;SDS011;31254;51.680;5.394;2022-07-06T02:56:10;4.80;;;2.30;;
45522;SDS011;31254;51.680;5.394;2022-07-06T02:58:36;4.10;;;2.30;;
45522;SDS011;31254;51.680;5.394;2022-07-06T03:01:05;3.90;;;2.38;;
45522;SDS011;31254;51.680;5.394;2022-07-06T03:03:32;6.00;;;2.80;;
45522;SDS011;31254;51.680;5.394;2022-07-06T03:05:59;4.95;;;2.50;;
45522;SDS011;31254;51.680;5.394;2022-07-06T03:08:26;6.05;;;2.67;;
45522;SDS011;31254;51.680;5.394;2022-07-06T03:10:52;3.53;;;2.47;;
45522;SDS011;31254;51.680;5.394;2022-07-06T03:13:19;5.65;;;2.58;;
45522;SDS011;31254;51.680;5.394;2022-07-06T03:15:45;9.18;;;2.80;;
45522;SDS011;31254;51.680;5.394;2022-07-06T03:18:12;7.07;;;3.05;;
45522;SDS011;31254;51.680;5.394;2022-07-06T03:20:39;6.82;;;3.30;;
45522;SDS011;31254;51.680;5.394;2022-07-06T03:23:06;3.58;;;2.45;;
45522;SDS011;31254;51.680;5.394;2022-07-06T03:25:32;4.78;;;2.75;;
45522;SDS011;31254;51.680;5.394;2022-07-06T03:27:59;6.63;;;2.92;;
45522;SDS011;31254;51.680;5.394;2022-07-06T03:30:26;6.30;;;2.70;;
45522;SDS011;31254;51.680;5.394;2022-07-06T03:32:52;6.75;;;3.10;;
45522;SDS011;31254;51.680;5.394;2022-07-06T03:35:19;6.90;;;3.25;;
45522;SDS011;31254;51.680;5.394;2022-07-06T03:37:46;6.47;;;3.10;;
45522;SDS011;31254;51.680;5.394;2022-07-06T03:40:12;11.20;;;3.47;;
45522;SDS011;31254;51.680;5.394;2022-07-06T03:42:41;5.07;;;2.85;;
45522;SDS011;31254;51.680;5.394;2022-07-06T03:45:08;7.57;;;3.28;;
45522;SDS011;31254;51.680;5.394;2022-07-06T03:47:37;6.75;;;3.03;;
45522;SDS011;31254;51.680;5.394;2022-07-06T03:50:04;7.15;;;3.22;;
45522;SDS011;31254;51.680;5.394;2022-07-06T03:52:31;6.07;;;3.22;;
45522;SDS011;31254;51.680;5.394;2022-07-06T03:54:58;6.75;;;3.30;;
45522;SDS011;31254;51.680;5.394;2022-07-06T03:57:26;5.53;;;3.50;;
45522;SDS011;31254;51.680;5.394;2022-07-06T03:59:53;7.68;;;3.53;;
45522;SDS011;31254;51.680;5.394;2022-07-06T04:02:22;6.30;;;3.30;;
45522;SDS011;31254;51.680;5.394;2022-07-06T04:04:51;9.50;;;4.07;;
45522;SDS011;31254;51.680;5.394;2022-07-06T04:07:22;7.07;;;3.42;;
45522;SDS011;31254;51.680;5.394;2022-07-06T04:09:51;7.32;;;3.10;;
45522;SDS011;31254;51.680;5.394;2022-07-06T04:12:21;4.68;;;3.10;;
45522;SDS011;31254;51.680;5.394;2022-07-06T04:14:47;4.93;;;2.90;;
45522;SDS011;31254;51.680;5.394;2022-07-06T04:17:14;5.65;;;3.00;;
45522;SDS011;31254;51.680;5.394;2022-07-06T04:20:00;6.32;;;3.42;;
45522;SDS011;31254;51.680;5.394;2022-07-06T04:22:26;6.65;;;3.40;;
45522;SDS011;31254;51.680;5.394;2022-07-06T04:24:53;7.78;;;2.97;;
45522;SDS011;31254;51.680;5.394;2022-07-06T04:27:20;6.10;;;2.90;;
45522;SDS011;31254;51.680;5.394;2022-07-06T04:29:46;8.52;;;3.30;;
45522;SDS011;31254;51.680;5.394;2022-07-06T04:32:13;5.55;;;3.50;;
45522;SDS011;31254;51.680;5.394;2022-07-06T04:34:39;5.18;;;3.15;;
45522;SDS011;31254;51.680;5.394;2022-07-06T04:37:06;5.25;;;3.63;;
45522;SDS011;31254;51.680;5.394;2022-07-06T04:39:32;6.63;;;3.00;;
45522;SDS011;31254;51.680;5.394;2022-07-06T04:41:59;10.80;;;3.30;;
45522;SDS011;31254;51.680;5.394;2022-07-06T04:44:26;5.88;;;3.05;;
45522;SDS011;31254;51.680;5.394;2022-07-06T04:46:52;6.10;;;3.33;;
45522;SDS011;31254;51.680;5.394;2022-07-06T04:49:19;11.95;;;2.97;;
45522;SDS011;31254;51.680;5.394;2022-07-06T04:51:46;5.35;;;2.92;;
45522;SDS011;31254;51.680;5.394;2022-07-06T04:54:12;5.65;;;2.90;;
45522;SDS011;31254;51.680;5.394;2022-07-06T04:56:41;9.13;;;3.03;;
45522;SDS011;31254;51.680;5.394;2022-07-06T04:59:08;11.05;;;3.30;;
45522;SDS011;31254;51.680;5.394;2022-07-06T05:01:35;5.95;;;3.05;;
45522;SDS011;31254;51.680;5.394;2022-07-06T05:04:01;5.03;;;2.97;;
45522;SDS011;31254;51.680;5.394;2022-07-06T05:06:28;5.13;;;3.00;;
45522;SDS011;31254;51.680;5.394;2022-07-06T05:08:54;5.70;;;3.13;;
45522;SDS011;31254;51.680;5.394;2022-07-06T05:11:21;4.13;;;2.30;;
45522;SDS011;31254;51.680;5.394;2022-07-06T05:13:48;5.28;;;2.33;;
45522;SDS011;31254;51.680;5.394;2022-07-06T05:16:14;4.97;;;2.35;;
45522;SDS011;31254;51.680;5.394;2022-07-06T05:18:41;5.00;;;2.53;;
45522;SDS011;31254;51.680;5.394;2022-07-06T05:21:07;3.97;;;2.35;;
45522;SDS011;31254;51.680;5.394;2022-07-06T05:23:37;4.60;;;2.30;;
45522;SDS011;31254;51.680;5.394;2022-07-06T05:26:04;4.20;;;2.10;;
45522;SDS011;31254;51.680;5.394;2022-07-06T05:28:30;12.13;;;2.45;;
45522;SDS011;31254;51.680;5.394;2022-07-06T05:31:01;4.35;;;2.08;;
45522;SDS011;31254;51.680;5.394;2022-07-06T05:33:28;4.53;;;1.95;;
45522;SDS011;31254;51.680;5.394;2022-07-06T05:35:55;12.23;;;2.10;;
45522;SDS011;31254;51.680;5.394;2022-07-06T05:38:21;5.03;;;2.08;;
45522;SDS011;31254;51.680;5.394;2022-07-06T05:40:48;4.97;;;1.80;;
45522;SDS011;31254;51.680;5.394;2022-07-06T05:43:18;4.80;;;2.20;;
45522;SDS011;31254;51.680;5.394;2022-07-06T05:45:45;4.60;;;2.13;;
45522;SDS011;31254;51.680;5.394;2022-07-06T05:48:11;7.10;;;2.10;;
45522;SDS011;31254;51.680;5.394;2022-07-06T05:50:56;4.75;;;1.92;;
45522;SDS011;31254;51.680;5.394;2022-07-06T05:53:23;4.68;;;1.90;;
45522;SDS011;31254;51.680;5.394;2022-07-06T05:55:50;4.07;;;1.63;;
45522;SDS011;31254;51.680;5.394;2022-07-06T05:58:19;8.40;;;3.15;;
45522;SDS011;31254;51.680;5.394;2022-07-06T06:00:46;5.55;;;1.48;;
45522;SDS011;31254;51.680;5.394;2022-07-06T06:03:13;5.70;;;1.40;;
45522;SDS011;31254;51.680;5.394;2022-07-06T06:05:42;2.97;;;1.10;;
45522;SDS011;31254;51.680;5.394;2022-07-06T06:08:09;3.42;;;0.90;;
45522;SDS011;31254;51.680;5.394;2022-07-06T06:10:39;3.25;;;1.20;;
45522;SDS011;31254;51.680;5.394;2022-07-06T06:13:05;7.80;;;1.10;;
45522;SDS011;31254;51.680;5.394;2022-07-06T06:15:32;7.38;;;1.40;;
45522;SDS011;31254;51.680;5.394;2022-07-06T06:17:59;3.35;;;0.95;;
45522;SDS011;31254;51.680;5.394;2022-07-06T06:20:26;1.67;;;1.00;;
45522;SDS011;31254;51.680;5.394;2022-07-06T06:22:57;2.67;;;0.90;;
45522;SDS011;31254;51.680;5.394;2022-07-06T06:25:28;3.70;;;1.02;;
45522;SDS011;31254;51.680;5.394;2022-07-06T06:27:59;6.15;;;1.17;;
45522;SDS011;31254;51.680;5.394;2022-07-06T06:30:26;2.80;;;0.90;;
45522;SDS011;31254;51.680;5.394;2022-07-06T06:33:06;2.83;;;1.00;;
45522;SDS011;31254;51.680;5.394;2022-07-06T06:35:36;2.97;;;0.80;;
45522;SDS011;31254;51.680;5.394;2022-07-06T06:38:06;3.15;;;0.95;;
45522;SDS011;31254;51.680;5.394;2022-07-06T06:40:32;2.83;;;1.27;;
45522;SDS011;31254;51.680;5.394;2022-07-06T06:42:59;2.95;;;0.95;;
45522;SDS011;31254;51.680;5.394;2022-07-06T06:45:26;2.60;;;0.80;;
45522;SDS011;31254;51.680;5.394;2022-07-06T06:47:53;5.50;;;1.50;;
45522;SDS011;31254;51.680;5.394;2022-07-06T06:50:20;1.98;;;0.70;;
45522;SDS011;31254;51.680;5.394;2022-07-06T06:52:51;2.45;;;0.60;;
45522;SDS011;31254;51.680;5.394;2022-07-06T06:55:18;6.25;;;0.90;;
45522;SDS011;31254;51.680;5.394;2022-07-06T06:57:44;5.78;;;0.95;;
45522;SDS011;31254;51.680;5.394;2022-07-06T07:00:11;2.30;;;0.68;;
45522;SDS011;31254;51.680;5.394;2022-07-06T07:02:41;6.43;;;0.80;;
45522;SDS011;31254;51.680;5.394;2022-07-06T07:05:10;6.35;;;1.23;;
45522;SDS011;31254;51.680;5.394;2022-07-06T07:07:37;2.92;;;1.02;;
45522;SDS011;31254;51.680;5.394;2022-07-06T07:10:04;3.65;;;0.88;;
45522;SDS011;31254;51.680;5.394;2022-07-06T07:12:33;2.38;;;0.80;;
45522;SDS011;31254;51.680;5.394;2022-07-06T07:15:01;2.17;;;0.77;;
45522;SDS011;31254;51.680;5.394;2022-07-06T07:17:27;2.85;;;0.70;;
45522;SDS011;31254;51.680;5.394;2022-07-06T07:19:54;2.75;;;0.70;;
45522;SDS011;31254;51.680;5.394;2022-07-06T07:22:23;5.35;;;0.90;;
45522;SDS011;31254;51.680;5.394;2022-07-06T07:24:50;3.40;;;0.70;;
45522;SDS011;31254;51.680;5.394;2022-07-06T07:27:19;3.30;;;0.73;;
45522;SDS011;31254;51.680;5.394;2022-07-06T07:29:47;1.88;;;0.50;;
45522;SDS011;31254;51.680;5.394;2022-07-06T07:32:14;0.75;;;0.40;;
45522;SDS011;31254;51.680;5.394;2022-07-06T07:34:40;1.85;;;0.50;;
45522;SDS011;31254;51.680;5.394;2022-07-06T07:37:07;2.08;;;0.43;;
45522;SDS011;31254;51.680;5.394;2022-07-06T07:39:34;1.60;;;0.40;;
45522;SDS011;31254;51.680;5.394;2022-07-06T07:42:00;1.77;;;0.35;;
45522;SDS011;31254;51.680;5.394;2022-07-06T07:44:27;3.75;;;0.50;;
45522;SDS011;31254;51.680;5.394;2022-07-06T07:46:53;2.58;;;0.40;;
45522;SDS011;31254;51.680;5.394;2022-07-06T07:49:22;1.13;;;0.32;;
45522;SDS011;31254;51.680;5.394;2022-07-06T07:51:49;0.93;;;0.32;;
45522;SDS011;31254;51.680;5.394;2022-07-06T07:54:16;4.90;;;0.40;;
45522;SDS011;31254;51.680;5.394;2022-07-06T07:56:43;2.83;;;0.68;;
45522;SDS011;31254;51.680;5.394;2022-07-06T07:59:12;2.35;;;0.38;;
45522;SDS011;31254;51.680;5.394;2022-07-06T08:01:38;1.27;;;0.30;;
45522;SDS011;31254;51.680;5.394;2022-07-06T08:04:05;3.50;;;0.65;;
45522;SDS011;31254;51.680;5.394;2022-07-06T08:06:32;1.33;;;0.30;;
45522;SDS011;31254;51.680;5.394;2022-07-06T08:08:59;1.65;;;0.40;;
45522;SDS011;31254;51.680;5.394;2022-07-06T08:11:26;1.63;;;0.38;;
45522;SDS011;31254;51.680;5.394;2022-07-06T08:13:52;2.13;;;0.60;;
45522;SDS011;31254;51.680;5.394;2022-07-06T08:16:21;1.08;;;0.60;;
45522;SDS011;31254;51.680;5.394;2022-07-06T08:18:51;7.28;;;0.57;;
45522;SDS011;31254;51.680;5.394;2022-07-06T08:21:18;0.70;;;0.40;;
45522;SDS011;31254;51.680;5.394;2022-07-06T08:23:55;2.70;;;0.40;;
45522;SDS011;31254;51.680;5.394;2022-07-06T08:26:22;3.15;;;0.50;;
45522;SDS011;31254;51.680;5.394;2022-07-06T08:28:49;3.03;;;0.40;;
45522;SDS011;31254;51.680;5.394;2022-07-06T08:31:16;3.42;;;0.47;;
45522;SDS011;31254;51.680;5.394;2022-07-06T08:34:03;3.30;;;0.50;;
45522;SDS011;31254;51.680;5.394;2022-07-06T08:36:30;1.55;;;0.35;;
45522;SDS011;31254;51.680;5.394;2022-07-06T08:38:57;3.42;;;0.40;;
45522;SDS011;31254;51.680;5.394;2022-07-06T08:41:25;3.70;;;0.40;;
45522;SDS011;31254;51.680;5.394;2022-07-06T08:43:54;3.28;;;0.30;;
45522;SDS011;31254;51.680;5.394;2022-07-06T08:46:21;1.30;;;0.22;;
45522;SDS011;31254;51.680;5.394;2022-07-06T08:48:49;3.72;;;0.60;;
45522;SDS011;31254;51.680;5.394;2022-07-06T08:51:16;0.63;;;0.20;;
45522;SDS011;31254;51.680;5.394;2022-07-06T08:53:44;1.30;;;0.20;;
45522;SDS011;31254;51.680;5.394;2022-07-06T08:56:12;0.82;;;0.30;;
45522;SDS011;31254;51.680;5.394;2022-07-06T08:58:39;0.85;;;0.30;;
45522;SDS011;31254;51.680;5.394;2022-07-06T09:01:11;2.22;;;0.30;;
45522;SDS011;31254;51.680;5.394;2022-07-06T09:03:39;1.45;;;0.20;;
45522;SDS011;31254;51.680;5.394;2022-07-06T09:06:06;2.22;;;0.40;;
45522;SDS011;31254;51.680;5.394;2022-07-06T09:08:34;2.30;;;0.40;;
45522;SDS011;31254;51.680;5.394;2022-07-06T09:11:03;3.13;;;0.40;;
45522;SDS011;31254;51.680;5.394;2022-07-06T09:13:32;5.18;;;0.22;;
45522;SDS011;31254;51.680;5.394;2022-07-06T09:16:11;1.80;;;0.60;;
45522;SDS011;31254;51.680;5.394;2022-07-06T09:18:59;0.60;;;0.40;;
45522;SDS011;31254;51.680;5.394;2022-07-06T09:21:27;3.45;;;0.55;;
45522;SDS011;31254;51.680;5.394;2022-07-06T09:24:00;3.50;;;0.30;;
45522;SDS011;31254;51.680;5.394;2022-07-06T09:26:31;2.75;;;0.80;;
45522;SDS011;31254;51.680;5.394;2022-07-06T09:28:58;3.33;;;0.55;;
45522;SDS011;31254;51.680;5.394;2022-07-06T09:31:27;3.42;;;0.43;;
45522;SDS011;31254;51.680;5.394;2022-07-06T09:34:04;1.27;;;0.32;;
45522;SDS011;31254;51.680;5.394;2022-07-06T09:36:47;1.33;;;0.30;;
45522;SDS011;31254;51.680;5.394;2022-07-06T09:41:45;1.40;;;0.30;;
45522;SDS011;31254;51.680;5.394;2022-07-06T09:44:12;5.30;;;0.32;;
45522;SDS011;31254;51.680;5.394;2022-07-06T09:46:40;0.95;;;0.40;;
45522;SDS011;31254;51.680;5.394;2022-07-06T09:49:08;1.20;;;0.38;;
45522;SDS011;31254;51.680;5.394;2022-07-06T09:51:35;2.30;;;0.47;;
45522;SDS011;31254;51.680;5.394;2022-07-06T09:54:05;1.10;;;0.40;;
45522;SDS011;31254;51.680;5.394;2022-07-06T09:56:37;2.42;;;0.30;;
45522;SDS011;31254;51.680;5.394;2022-07-06T09:59:11;1.38;;;0.20;;
45522;SDS011;31254;51.680;5.394;2022-07-06T10:01:40;2.47;;;0.38;;
45522;SDS011;31254;51.680;5.394;2022-07-06T10:04:08;3.58;;;0.50;;
45522;SDS011;31254;51.680;5.394;2022-07-06T10:06:39;0.75;;;0.30;;
45522;SDS011;31254;51.680;5.394;2022-07-06T10:09:07;1.85;;;0.50;;
45522;SDS011;31254;51.680;5.394;2022-07-06T10:11:40;1.60;;;0.38;;
45522;SDS011;31254;51.680;5.394;2022-07-06T10:14:08;3.88;;;0.35;;
45522;SDS011;31254;51.680;5.394;2022-07-06T10:16:40;0.60;;;0.20;;
45522;SDS011;31254;51.680;5.394;2022-07-06T10:19:09;1.15;;;0.32;;
45522;SDS011;31254;51.680;5.394;2022-07-06T10:21:37;0.93;;;0.30;;
45522;SDS011;31254;51.680;5.394;2022-07-06T10:24:05;2.55;;;0.63;;
45522;SDS011;31254;51.680;5.394;2022-07-06T10:26:33;1.13;;;0.35;;
45522;SDS011;31254;51.680;5.394;2022-07-06T10:29:02;1.80;;;0.40;;
45522;SDS011;31254;51.680;5.394;2022-07-06T10:31:30;3.20;;;0.20;;
45522;SDS011;31254;51.680;5.394;2022-07-06T10:33:58;0.88;;;0.38;;
45522;SDS011;31254;51.680;5.394;2022-07-06T10:36:27;1.90;;;0.40;;
45522;SDS011;31254;51.680;5.394;2022-07-06T10:38:55;2.10;;;0.32;;
45522;SDS011;31254;51.680;5.394;2022-07-06T10:41:31;1.10;;;0.40;;
45522;SDS011;31254;51.680;5.394;2022-07-06T10:44:14;1.30;;;0.30;;
45522;SDS011;31254;51.680;5.394;2022-07-06T10:46:50;1.20;;;0.30;;
45522;SDS011;31254;51.680;5.394;2022-07-06T10:49:21;1.23;;;0.30;;
45522;SDS011;31254;51.680;5.394;2022-07-06T10:52:08;1.30;;;0.22;;
45522;SDS011;31254;51.680;5.394;2022-07-06T10:54:38;0.60;;;0.20;;
45522;SDS011;31254;51.680;5.394;2022-07-06T10:57:08;0.50;;;0.20;;
45522;SDS011;31254;51.680;5.394;2022-07-06T10:59:36;1.73;;;0.30;;
45522;SDS011;31254;51.680;5.394;2022-07-06T11:02:11;2.88;;;0.30;;
45522;SDS011;31254;51.680;5.394;2022-07-06T11:04:39;3.03;;;0.70;;
45522;SDS011;31254;51.680;5.394;2022-07-06T11:07:10;2.88;;;0.47;;
45522;SDS011;31254;51.680;5.394;2022-07-06T11:09:39;2.28;;;0.22;;
45522;SDS011;31254;51.680;5.394;2022-07-06T11:12:16;1.80;;;0.30;;
45522;SDS011;31254;51.680;5.394;2022-07-06T11:14:48;2.42;;;0.25;;
45522;SDS011;31254;51.680;5.394;2022-07-06T11:17:21;4.70;;;0.50;;
45522;SDS011;31254;51.680;5.394;2022-07-06T11:19:52;2.45;;;0.30;;
45522;SDS011;31254;51.680;5.394;2022-07-06T11:22:29;0.82;;;0.38;;
45522;SDS011;31254;51.680;5.394;2022-07-06T11:24:58;3.08;;;0.50;;
45522;SDS011;31254;51.680;5.394;2022-07-06T11:27:31;2.58;;;0.60;;
45522;SDS011;31254;51.680;5.394;2022-07-06T11:30:03;1.20;;;0.43;;
45522;SDS011;31254;51.680;5.394;2022-07-06T11:32:33;1.38;;;0.15;;
45522;SDS011;31254;51.680;5.394;2022-07-06T11:35:23;1.17;;;0.30;;
45522;SDS011;31254;51.680;5.394;2022-07-06T11:37:56;1.05;;;0.40;;
45522;SDS011;31254;51.680;5.394;2022-07-06T11:40:24;2.40;;;0.30;;
45522;SDS011;31254;51.680;5.394;2022-07-06T11:42:53;1.52;;;0.40;;
45522;SDS011;31254;51.680;5.394;2022-07-06T11:45:25;1.75;;;0.35;;
45522;SDS011;31254;51.680;5.394;2022-07-06T11:48:09;3.00;;;0.50;;
45522;SDS011;31254;51.680;5.394;2022-07-06T11:50:42;3.80;;;0.40;;
45522;SDS011;31254;51.680;5.394;2022-07-06T11:53:34;0.95;;;0.40;;
45522;SDS011;31254;51.680;5.394;2022-07-06T11:56:22;3.97;;;0.50;;
45522;SDS011;31254;51.680;5.394;2022-07-06T11:58:57;0.75;;;0.38;;
45522;SDS011;31254;51.680;5.394;2022-07-06T12:01:26;1.88;;;0.30;;
45522;SDS011;31254;51.680;5.394;2022-07-06T12:04:00;0.88;;;0.30;;
45522;SDS011;31254;51.680;5.394;2022-07-06T12:06:33;2.25;;;0.77;;
45522;SDS011;31254;51.680;5.394;2022-07-06T12:09:08;1.52;;;0.38;;
45522;SDS011;31254;51.680;5.394;2022-07-06T12:11:35;2.75;;;0.40;;
45522;SDS011;31254;51.680;5.394;2022-07-06T12:14:12;2.30;;;0.40;;
45522;SDS011;31254;51.680;5.394;2022-07-06T12:16:49;3.42;;;0.45;;
45522;SDS011;31254;51.680;5.394;2022-07-06T12:19:19;5.57;;;0.57;;
45522;SDS011;31254;51.680;5.394;2022-07-06T12:21:49;1.73;;;0.30;;
45522;SDS011;31254;51.680;5.394;2022-07-06T12:24:17;2.65;;;0.60;;
45522;SDS011;31254;51.680;5.394;2022-07-06T12:26:49;3.75;;;1.10;;
45522;SDS011;31254;51.680;5.394;2022-07-06T12:29:19;1.35;;;0.40;;
45522;SDS011;31254;51.680;5.394;2022-07-06T12:31:48;2.67;;;0.22;;
45522;SDS011;31254;51.680;5.394;2022-07-06T12:34:23;1.00;;;0.30;;
45522;SDS011;31254;51.680;5.394;2022-07-06T12:36:52;2.63;;;0.30;;
45522;SDS011;31254;51.680;5.394;2022-07-06T12:39:30;1.45;;;0.90;;
45522;SDS011;31254;51.680;5.394;2022-07-06T12:42:02;2.22;;;0.47;;
45522;SDS011;31254;51.680;5.394;2022-07-06T12:44:31;0.70;;;0.20;;
45522;SDS011;31254;51.680;5.394;2022-07-06T12:47:07;0.80;;;0.30;;
45522;SDS011;31254;51.680;5.394;2022-07-06T12:49:38;2.05;;;0.30;;
45522;SDS011;31254;51.680;5.394;2022-07-06T12:52:12;1.67;;;0.40;;
45522;SDS011;31254;51.680;5.394;2022-07-06T12:54:41;5.13;;;0.30;;
45522;SDS011;31254;51.680;5.394;2022-07-06T12:57:16;2.70;;;0.40;;
45522;SDS011;31254;51.680;5.394;2022-07-06T12:59:45;6.78;;;0.55;;
45522;SDS011;31254;51.680;5.394;2022-07-06T13:02:17;1.15;;;0.50;;
45522;SDS011;31254;51.680;5.394;2022-07-06T13:05:05;2.83;;;0.75;;
45522;SDS011;31254;51.680;5.394;2022-07-06T13:07:35;1.35;;;0.40;;
45522;SDS011;31254;51.680;5.394;2022-07-06T13:10:06;3.75;;;0.95;;
45522;SDS011;31254;51.680;5.394;2022-07-06T13:12:37;2.35;;;0.50;;
45522;SDS011;31254;51.680;5.394;2022-07-06T13:15:04;9.68;;;0.70;;
45522;SDS011;31254;51.680;5.394;2022-07-06T13:17:32;3.10;;;0.40;;
45522;SDS011;31254;51.680;5.394;2022-07-06T13:20:00;3.95;;;0.45;;
45522;SDS011;31254;51.680;5.394;2022-07-06T13:22:27;2.53;;;0.35;;
45522;SDS011;31254;51.680;5.394;2022-07-06T13:24:56;1.98;;;0.38;;
45522;SDS011;31254;51.680;5.394;2022-07-06T13:27:23;1.52;;;0.40;;
45522;SDS011;31254;51.680;5.394;2022-07-06T13:29:49;2.92;;;0.50;;
45522;SDS011;31254;51.680;5.394;2022-07-06T13:32:16;13.25;;;1.98;;
45522;SDS011;31254;51.680;5.394;2022-07-06T13:34:43;4.75;;;0.68;;
45522;SDS011;31254;51.680;5.394;2022-07-06T13:37:10;7.10;;;0.80;;
45522;SDS011;31254;51.680;5.394;2022-07-06T13:39:36;3.20;;;0.55;;
45522;SDS011;31254;51.680;5.394;2022-07-06T13:42:05;4.63;;;0.50;;
45522;SDS011;31254;51.680;5.394;2022-07-06T13:44:34;4.38;;;0.77;;
45522;SDS011;31254;51.680;5.394;2022-07-06T13:47:00;1.80;;;0.60;;
45522;SDS011;31254;51.680;5.394;2022-07-06T13:49:30;3.13;;;0.70;;
45522;SDS011;31254;51.680;5.394;2022-07-06T13:51:57;3.50;;;0.70;;
45522;SDS011;31254;51.680;5.394;2022-07-06T13:54:30;2.00;;;0.60;;
45522;SDS011;31254;51.680;5.394;2022-07-06T13:56:58;2.88;;;0.70;;
45522;SDS011;31254;51.680;5.394;2022-07-06T13:59:27;7.13;;;0.98;;
45522;SDS011;31254;51.680;5.394;2022-07-06T14:01:54;2.85;;;1.08;;
45522;SDS011;31254;51.680;5.394;2022-07-06T14:04:21;5.68;;;1.00;;
45522;SDS011;31254;51.680;5.394;2022-07-06T14:06:47;10.88;;;1.17;;
45522;SDS011;31254;51.680;5.394;2022-07-06T14:09:16;4.47;;;0.80;;
45522;SDS011;31254;51.680;5.394;2022-07-06T14:11:43;5.75;;;1.00;;
45522;SDS011;31254;51.680;5.394;2022-07-06T14:14:10;2.22;;;0.80;;
45522;SDS011;31254;51.680;5.394;2022-07-06T14:16:36;7.50;;;1.05;;
45522;SDS011;31254;51.680;5.394;2022-07-06T14:19:07;3.08;;;0.73;;
45522;SDS011;31254;51.680;5.394;2022-07-06T14:21:39;3.63;;;1.00;;
45522;SDS011;31254;51.680;5.394;2022-07-06T14:24:06;3.90;;;0.90;;
45522;SDS011;31254;51.680;5.394;2022-07-06T14:26:33;4.80;;;1.08;;
45522;SDS011;31254;51.680;5.394;2022-07-06T14:28:59;2.30;;;0.75;;
45522;SDS011;31254;51.680;5.394;2022-07-06T14:31:26;1.83;;;1.00;;
45522;SDS011;31254;51.680;5.394;2022-07-06T14:33:55;3.17;;;1.10;;
45522;SDS011;31254;51.680;5.394;2022-07-06T14:36:22;3.05;;;0.70;;
45522;SDS011;31254;51.680;5.394;2022-07-06T14:38:50;3.83;;;0.98;;
45522;SDS011;31254;51.680;5.394;2022-07-06T14:41:17;4.03;;;0.90;;
45522;SDS011;31254;51.680;5.394;2022-07-06T14:43:44;2.58;;;0.65;;
45522;SDS011;31254;51.680;5.394;2022-07-06T14:46:10;3.67;;;0.80;;
45522;SDS011;31254;51.680;5.394;2022-07-06T14:48:39;4.70;;;0.90;;
45522;SDS011;31254;51.680;5.394;2022-07-06T14:51:06;3.13;;;0.77;;
45522;SDS011;31254;51.680;5.394;2022-07-06T14:53:33;6.55;;;1.00;;
45522;SDS011;31254;51.680;5.394;2022-07-06T14:56:00;1.27;;;0.80;;
45522;SDS011;31254;51.680;5.394;2022-07-06T14:58:27;7.40;;;0.98;;
45522;SDS011;31254;51.680;5.394;2022-07-06T15:00:53;4.15;;;0.80;;